Terminal Aerodrome Forecast
Issued by NWS

Home | Current Version | Previous Version | Text Only | Print | Product List | Glossary On
Versions: 1 2 3 4 5 6 7 8 9 10 11 12 13 14 15 16 17 18 19 20 21 22 23
000
FTUS42 KJAX 232333 AAA
TAFCRG
TAF AMD
KCRG 232333Z 2400/2424 22011KT P6SM SHRA SCT040 BKN100
      TEMPO 2401/2403 VRB15G30KT 2SM +TSRA BKN020CB
     FM240400 20010KT 4SM SHRA BKN025 OVC050
     FM241300 22015G25KT 4SM SHRA VCTS OVC020CB=

USA.gov is the U.S. government's official web portal to all federal, state and local government web resources and services.